createdAt,value
2018-08-25T00:00:54.917Z,100446.00
2018-08-25T00:03:23.756Z,100439.00
2018-08-25T00:05:52.568Z,100432.00
2018-08-25T00:08:21.426Z,100434.00
2018-08-25T00:10:50.267Z,100424.00
2018-08-25T00:13:19.108Z,100414.00
2018-08-25T00:15:47.956Z,100424.00
2018-08-25T00:18:16.788Z,100419.00
2018-08-25T00:20:45.631Z,100422.00
2018-08-25T00:23:14.452Z,100408.00
2018-08-25T00:25:43.234Z,100412.00
2018-08-25T00:28:12.047Z,100415.00
2018-08-25T00:30:46.310Z,100403.00
2018-08-25T00:33:15.147Z,100401.00
2018-08-25T00:35:44.000Z,100404.00
2018-08-25T00:38:12.881Z,100414.00
2018-08-25T00:40:41.888Z,100414.00
2018-08-25T00:43:10.698Z,100415.00
2018-08-25T00:45:39.561Z,100431.00
2018-08-25T00:48:08.579Z,100424.00
2018-08-25T00:50:37.441Z,100425.00
2018-08-25T00:53:06.416Z,100420.00
2018-08-25T00:55:35.235Z,100421.00
2018-08-25T00:58:04.046Z,100417.00
2018-08-25T01:00:32.921Z,100407.00
2018-08-25T01:03:01.706Z,100419.00
2018-08-25T01:05:30.538Z,100428.00
2018-08-25T01:07:59.339Z,100423.00
2018-08-25T01:10:28.220Z,100436.00
2018-08-25T01:12:57.048Z,100434.00
2018-08-25T01:15:25.924Z,100436.00
2018-08-25T01:17:54.763Z,100439.00
2018-08-25T01:20:23.626Z,100425.00
2018-08-25T01:22:52.477Z,100433.00
2018-08-25T01:25:21.396Z,100437.00
2018-08-25T01:27:50.297Z,100435.00
2018-08-25T01:30:19.116Z,100431.00
2018-08-25T01:32:47.996Z,100425.00
2018-08-25T01:35:17.024Z,100429.00
2018-08-25T01:37:45.908Z,100426.00
2018-08-25T01:40:14.768Z,100428.00
2018-08-25T01:42:43.578Z,100429.00
2018-08-25T01:45:12.455Z,100432.00
2018-08-25T01:47:41.309Z,100432.00
2018-08-25T01:50:10.236Z,100433.00
2018-08-25T01:52:39.104Z,100431.00
2018-08-25T01:55:07.955Z,100434.00
2018-08-25T01:57:36.800Z,100426.00
2018-08-25T02:00:06.806Z,100418.00
2018-08-25T02:02:35.672Z,100427.00
2018-08-25T02:05:04.549Z,100422.00
2018-08-25T02:07:33.671Z,100416.00
2018-08-25T02:10:02.580Z,100416.00
2018-08-25T02:12:31.930Z,100415.00
2018-08-25T02:15:00.828Z,100417.00
2018-08-25T02:17:29.973Z,100413.00
2018-08-25T02:19:58.767Z,100413.00
2018-08-25T02:22:27.583Z,100413.00
2018-08-25T02:24:56.457Z,100409.00
2018-08-25T02:27:25.335Z,100409.00
2018-08-25T02:29:54.167Z,100409.00
2018-08-25T02:32:22.978Z,100407.00
2018-08-25T02:34:51.841Z,100408.00
2018-08-25T02:37:20.697Z,100404.00
2018-08-25T02:39:49.551Z,100408.00
2018-08-25T02:42:18.408Z,100404.00
2018-08-25T02:44:47.276Z,100397.00
2018-08-25T02:47:16.058Z,100397.00
2018-08-25T02:49:44.925Z,100386.00
2018-08-25T02:52:13.781Z,100386.00
2018-08-25T02:54:42.625Z,100382.00
2018-08-25T02:57:11.430Z,100385.00
2018-08-25T02:59:40.270Z,100392.00
2018-08-25T03:02:09.072Z,100387.00
2018-08-25T03:04:37.891Z,100384.00
2018-08-25T03:07:07.022Z,100377.00
2018-08-25T03:09:35.936Z,100387.00
2018-08-25T03:12:04.768Z,100383.00
2018-08-25T03:14:33.644Z,100380.00
2018-08-25T03:17:02.430Z,100376.00
2018-08-25T03:19:31.269Z,100379.00
2018-08-25T03:22:00.139Z,100376.00
2018-08-25T03:24:28.985Z,100376.00
2018-08-25T03:26:57.836Z,100382.00
2018-08-25T03:29:26.707Z,100372.00
2018-08-25T03:31:55.584Z,100362.00
2018-08-25T03:34:24.431Z,100355.00
2018-08-25T03:36:53.254Z,100353.00
2018-08-25T03:39:22.042Z,100354.00
2018-08-25T03:41:50.901Z,100345.00
2018-08-25T03:44:19.778Z,100355.00
2018-08-25T03:46:48.634Z,100361.00
2018-08-25T03:49:17.455Z,100361.00
2018-08-25T03:51:46.321Z,100355.00
2018-08-25T03:54:15.212Z,100351.00
2018-08-25T03:56:44.092Z,100365.00
2018-08-25T03:59:12.976Z,100364.00
2018-08-25T04:01:41.968Z,100360.00
2018-08-25T04:04:10.765Z,100359.00
2018-08-25T04:06:39.634Z,100357.00
2018-08-25T04:09:11.872Z,100352.00
2018-08-25T04:11:40.857Z,100351.00
2018-08-25T04:14:10.984Z,100343.00
2018-08-25T04:16:40.166Z,100346.00
2018-08-25T04:19:13.820Z,100351.00
2018-08-25T04:21:42.671Z,100357.00
2018-08-25T04:24:11.550Z,100352.00
2018-08-25T04:26:40.427Z,100344.00
2018-08-25T04:29:09.412Z,100342.00
2018-08-25T04:31:38.264Z,100345.00
2018-08-25T04:34:07.132Z,100352.00
2018-08-25T04:36:36.046Z,100347.00
2018-08-25T04:39:08.122Z,100345.00
2018-08-25T04:41:37.112Z,100342.00
2018-08-25T04:44:06.009Z,100335.00
2018-08-25T04:46:34.818Z,100338.00
2018-08-25T04:49:03.668Z,100342.00
2018-08-25T04:51:32.559Z,100333.00
2018-08-25T04:54:01.516Z,100333.00
2018-08-25T04:56:30.331Z,100330.00
2018-08-25T04:58:59.203Z,100333.00
2018-08-25T05:01:28.047Z,100334.00
2018-08-25T05:03:56.887Z,100332.00
2018-08-25T05:06:25.699Z,100333.00
2018-08-25T05:08:54.552Z,100333.00
2018-08-25T05:11:23.411Z,100324.00
2018-08-25T05:13:52.293Z,100335.00
2018-08-25T05:16:21.117Z,100340.00
2018-08-25T05:18:49.996Z,100342.00
2018-08-25T05:21:18.856Z,100340.00
2018-08-25T05:23:47.696Z,100342.00
2018-08-25T05:26:16.546Z,100345.00
2018-08-25T05:28:45.471Z,100347.00
2018-08-25T05:31:14.365Z,100353.00
2018-08-25T05:33:43.218Z,100351.00
2018-08-25T05:36:12.096Z,100343.00
2018-08-25T05:38:40.994Z,100345.00
2018-08-25T05:41:09.841Z,100345.00
2018-08-25T05:43:38.798Z,100343.00
2018-08-25T05:46:07.660Z,100337.00
2018-08-25T05:48:36.481Z,100342.00
2018-08-25T05:51:05.402Z,100339.00
2018-08-25T05:53:34.299Z,100336.00
2018-08-25T05:56:03.147Z,100333.00
2018-08-25T05:58:32.017Z,100334.00
2018-08-25T06:01:00.850Z,100335.00
2018-08-25T06:03:29.679Z,100332.00
2018-08-25T06:05:58.500Z,100335.00
2018-08-25T06:08:27.361Z,100335.00
2018-08-25T06:10:56.187Z,100336.00
2018-08-25T06:13:24.999Z,100335.00
2018-08-25T06:15:53.852Z,100331.00
2018-08-25T06:18:22.685Z,100335.00
2018-08-25T06:20:51.770Z,100322.00
2018-08-25T06:23:20.566Z,100326.00
2018-08-25T06:25:49.379Z,100325.00
2018-08-25T06:28:18.294Z,100324.00
2018-08-25T06:30:47.173Z,100325.00
2018-08-25T06:33:16.033Z,100326.00
2018-08-25T06:35:44.835Z,100317.00
2018-08-25T06:38:13.672Z,100322.00
2018-08-25T06:40:42.585Z,100314.00
2018-08-25T06:43:11.431Z,100314.00
2018-08-25T06:45:40.263Z,100310.00
2018-08-25T06:48:09.157Z,100316.00
2018-08-25T06:50:37.991Z,100317.00
2018-08-25T06:53:06.931Z,100323.00
2018-08-25T06:55:35.865Z,100332.00
2018-08-25T06:58:04.899Z,100334.00
2018-08-25T07:00:33.835Z,100332.00
2018-08-25T07:03:02.709Z,100338.00
2018-08-25T07:05:31.572Z,100343.00
2018-08-25T07:08:01.320Z,100343.00
2018-08-25T07:10:30.211Z,100348.00
2018-08-25T07:12:59.135Z,100349.00
2018-08-25T07:15:28.008Z,100348.00
2018-08-25T07:17:56.846Z,100347.00
2018-08-25T07:20:25.668Z,100354.00
2018-08-25T07:22:54.466Z,100356.00
2018-08-25T07:25:23.291Z,100361.00
2018-08-25T07:27:52.132Z,100354.00
2018-08-25T07:30:21.921Z,100357.00
2018-08-25T07:32:50.749Z,100354.00
2018-08-25T07:35:19.611Z,100350.00
2018-08-25T07:37:48.425Z,100351.00
2018-08-25T07:40:17.240Z,100362.00
2018-08-25T07:42:46.094Z,100351.00
2018-08-25T07:45:15.050Z,100355.00
2018-08-25T07:47:43.891Z,100351.00
2018-08-25T07:50:12.695Z,100352.00
2018-08-25T07:52:41.583Z,100341.00
2018-08-25T07:55:10.499Z,100345.00
2018-08-25T07:57:39.361Z,100346.00
2018-08-25T08:00:08.268Z,100349.00
2018-08-25T08:02:37.153Z,100346.00
2018-08-25T08:05:05.987Z,100346.00
2018-08-25T08:07:34.873Z,100332.00
2018-08-25T08:10:03.748Z,100326.00
2018-08-25T08:12:32.603Z,100334.00
2018-08-25T08:15:01.397Z,100335.00
2018-08-25T08:17:30.252Z,100334.00
2018-08-25T08:19:59.137Z,100320.00
2018-08-25T08:22:27.942Z,100324.00
2018-08-25T08:24:56.823Z,100324.00
2018-08-25T08:27:25.676Z,100335.00
2018-08-25T08:29:54.527Z,100333.00
2018-08-25T08:32:23.368Z,100324.00
2018-08-25T08:34:52.257Z,100326.00
2018-08-25T08:37:21.091Z,100331.00
2018-08-25T08:39:49.913Z,100334.00
2018-08-25T08:42:18.855Z,100324.00
2018-08-25T08:44:47.659Z,100324.00
2018-08-25T08:47:16.501Z,100321.00
2018-08-25T08:49:46.818Z,100324.00
2018-08-25T08:52:14.303Z,100318.00
2018-08-25T08:54:43.111Z,100315.00
2018-08-25T08:57:11.960Z,100316.00
2018-08-25T08:59:40.877Z,100306.00
2018-08-25T09:02:10.066Z,100309.00
2018-08-25T09:04:38.988Z,100312.00
2018-08-25T09:07:07.845Z,100299.00
2018-08-25T09:09:36.936Z,100303.00
2018-08-25T09:12:05.882Z,100300.00
2018-08-25T09:14:34.773Z,100298.00
2018-08-25T09:17:03.684Z,100298.00
2018-08-25T09:19:32.573Z,100288.00
2018-08-25T09:22:01.411Z,100288.00
2018-08-25T09:24:30.280Z,100282.00
2018-08-25T09:26:59.115Z,100277.00
2018-08-25T09:29:28.022Z,100275.00
2018-08-25T09:31:56.904Z,100276.00
2018-08-25T09:34:25.771Z,100269.00
2018-08-25T09:36:54.707Z,100271.00
2018-08-25T09:39:23.521Z,100259.00
2018-08-25T09:41:52.445Z,100255.00
2018-08-25T09:44:21.287Z,100256.00
2018-08-25T09:46:50.152Z,100251.00
2018-08-25T09:49:18.964Z,100246.00
2018-08-25T09:51:47.885Z,100250.00
2018-08-25T09:54:16.711Z,100249.00
2018-08-25T09:56:45.601Z,100240.00
2018-08-25T09:59:14.494Z,100236.00
2018-08-25T10:01:48.778Z,100250.00
2018-08-25T10:04:17.643Z,100235.00
2018-08-25T10:06:46.529Z,100232.00
2018-08-25T10:09:15.380Z,100237.00
2018-08-25T10:11:44.249Z,100236.00
2018-08-25T10:14:13.241Z,100231.00
2018-08-25T10:16:42.208Z,100221.00
2018-08-25T10:19:10.930Z,100230.00
2018-08-25T10:21:39.727Z,100222.00
2018-08-25T10:24:08.823Z,100211.00
2018-08-25T10:26:37.852Z,100206.00
2018-08-25T10:29:07.181Z,100211.00
2018-08-25T10:31:35.958Z,100199.00
2018-08-25T10:34:04.774Z,100198.00
2018-08-25T10:36:33.632Z,100202.00
2018-08-25T10:39:02.493Z,100201.00
2018-08-25T10:41:31.334Z,100200.00
2018-08-25T10:44:00.179Z,100202.00
2018-08-25T10:46:29.044Z,100194.00
2018-08-25T10:48:57.858Z,100212.00
2018-08-25T10:51:26.701Z,100204.00
2018-08-25T10:53:55.526Z,100199.00
2018-08-25T10:56:24.393Z,100191.00
2018-08-25T10:58:53.439Z,100186.00
2018-08-25T11:01:22.273Z,100193.00
2018-08-25T11:03:51.157Z,100197.00
2018-08-25T11:06:20.037Z,100196.00
2018-08-25T11:08:48.992Z,100193.00
2018-08-25T11:11:17.861Z,100198.00
2018-08-25T11:13:46.736Z,100206.00
2018-08-25T11:16:15.568Z,100210.00
2018-08-25T11:18:44.492Z,100202.00
2018-08-25T11:21:13.357Z,100200.00
2018-08-25T11:23:42.194Z,100190.00
2018-08-25T11:26:11.037Z,100194.00
2018-08-25T11:28:39.920Z,100194.00
2018-08-25T11:31:08.826Z,100184.00
2018-08-25T11:33:37.657Z,100178.00
2018-08-25T11:36:06.556Z,100179.00
2018-08-25T11:38:35.380Z,100181.00
2018-08-25T11:41:04.167Z,100174.00
2018-08-25T11:43:33.017Z,100146.00
2018-08-25T11:46:01.838Z,100166.00
2018-08-25T11:48:30.664Z,100159.00
2018-08-25T11:50:59.525Z,100156.00
2018-08-25T11:53:28.440Z,100154.00
2018-08-25T11:55:57.315Z,100143.00
2018-08-25T11:58:26.135Z,100147.00
2018-08-25T12:00:55.025Z,100146.00
2018-08-25T12:03:23.974Z,100165.00
2018-08-25T12:05:52.820Z,100154.00
2018-08-25T12:08:21.622Z,100156.00
2018-08-25T12:10:50.452Z,100154.00
2018-08-25T12:13:19.255Z,100157.00
2018-08-25T12:15:48.071Z,100152.00
2018-08-25T12:18:16.956Z,100145.00
2018-08-25T12:20:45.805Z,100149.00
2018-08-25T12:23:14.676Z,100170.00
2018-08-25T12:25:43.491Z,100143.00
2018-08-25T12:28:12.355Z,100157.00
2018-08-25T12:30:41.246Z,100151.00
2018-08-25T12:33:10.072Z,100155.00
2018-08-25T12:35:39.192Z,100155.00
2018-08-25T12:38:08.016Z,100167.00
2018-08-25T12:40:36.894Z,100174.00
2018-08-25T12:43:06.099Z,100168.00
2018-08-25T12:45:34.927Z,100162.00
2018-08-25T12:48:03.816Z,100171.00
2018-08-25T12:50:32.676Z,100168.00
2018-08-25T12:53:01.528Z,100183.00
2018-08-25T12:55:30.447Z,100183.00
2018-08-25T12:57:59.364Z,100192.00
2018-08-25T13:00:28.168Z,100195.00
2018-08-25T13:02:57.016Z,100210.00
2018-08-25T13:05:26.161Z,100195.00
2018-08-25T13:07:55.044Z,100213.00
2018-08-25T13:10:23.950Z,100229.00
2018-08-25T13:12:52.803Z,100291.00
2018-08-25T13:15:21.624Z,100261.00
2018-08-25T13:17:50.480Z,100265.00
2018-08-25T13:20:19.365Z,100290.00
2018-08-25T13:22:48.221Z,100270.00
2018-08-25T13:25:17.085Z,100263.00
2018-08-25T13:27:45.956Z,100276.00
2018-08-25T13:30:14.811Z,100273.00
2018-08-25T13:32:43.663Z,100274.00
2018-08-25T13:35:12.639Z,100288.00
2018-08-25T13:37:41.750Z,100294.00
2018-08-25T13:40:10.791Z,100293.00
2018-08-25T13:42:39.948Z,100300.00
2018-08-25T13:45:08.799Z,100302.00
2018-08-25T13:47:38.976Z,100303.00
2018-08-25T13:50:07.860Z,100301.00
2018-08-25T13:52:36.782Z,100295.00
2018-08-25T13:55:05.788Z,100302.00
2018-08-25T13:57:34.706Z,100294.00
2018-08-25T14:00:03.570Z,100300.00
2018-08-25T14:02:32.441Z,100292.00
2018-08-25T14:05:01.281Z,100303.00
2018-08-25T14:07:30.723Z,100288.00
2018-08-25T14:09:59.841Z,100290.00
2018-08-25T14:12:28.705Z,100295.00
2018-08-25T14:14:57.556Z,100289.00
2018-08-25T14:17:26.411Z,100289.00
2018-08-25T14:19:55.351Z,100290.00
2018-08-25T14:22:24.149Z,100288.00
2018-08-25T14:24:52.981Z,100282.00
2018-08-25T14:27:21.804Z,100273.00
2018-08-25T14:29:50.674Z,100272.00
2018-08-25T14:32:19.496Z,100265.00
2018-08-25T14:34:48.310Z,100263.00
2018-08-25T14:37:17.144Z,100255.00
2018-08-25T14:39:46.002Z,100269.00
2018-08-25T14:42:14.840Z,100256.00
2018-08-25T14:44:43.769Z,100257.00
2018-08-25T14:47:12.652Z,100254.00
2018-08-25T14:49:41.472Z,100258.00
2018-08-25T14:52:10.369Z,100257.00
2018-08-25T14:54:39.197Z,100256.00
2018-08-25T14:57:08.031Z,100254.00
2018-08-25T14:59:36.867Z,100262.00
2018-08-25T15:02:06.403Z,100265.00
2018-08-25T15:04:36.332Z,100258.00
2018-08-25T15:07:07.371Z,100258.00
2018-08-25T15:09:36.392Z,100258.00
2018-08-25T15:12:05.592Z,100254.00
2018-08-25T15:14:35.309Z,100250.00
2018-08-25T15:17:04.900Z,100252.00
2018-08-25T15:19:34.356Z,100258.00
2018-08-25T15:22:03.203Z,100248.00
2018-08-25T15:24:32.043Z,100244.00
2018-08-25T15:27:00.893Z,100236.00
2018-08-25T15:29:29.745Z,100235.00
2018-08-25T15:31:58.540Z,100240.00
2018-08-25T15:34:27.357Z,100234.00
2018-08-25T15:36:56.168Z,100236.00
2018-08-25T15:39:25.090Z,100233.00
2018-08-25T15:41:53.933Z,100241.00
2018-08-25T15:44:22.789Z,100236.00
2018-08-25T15:46:51.629Z,100234.00
2018-08-25T15:49:20.439Z,100237.00
2018-08-25T15:51:49.296Z,100243.00
2018-08-25T15:54:18.084Z,100250.00
2018-08-25T15:56:46.977Z,100252.00
2018-08-25T15:59:15.787Z,100268.00
2018-08-25T16:01:44.665Z,100279.00
2018-08-25T16:04:13.801Z,100253.00
2018-08-25T16:06:42.628Z,100253.00
2018-08-25T16:09:11.881Z,100261.00
2018-08-25T16:11:40.934Z,100247.00
2018-08-25T16:14:09.659Z,100245.00
2018-08-25T16:16:38.598Z,100255.00
2018-08-25T16:19:07.755Z,100271.00
2018-08-25T16:21:36.615Z,100264.00
2018-08-25T16:24:05.456Z,100268.00
2018-08-25T16:26:34.332Z,100261.00
2018-08-25T16:29:03.172Z,100268.00
2018-08-25T16:31:32.044Z,100266.00
2018-08-25T16:34:00.905Z,100262.00
2018-08-25T16:36:29.763Z,100270.00
2018-08-25T16:38:58.551Z,100278.00
2018-08-25T16:41:27.414Z,100275.00
2018-08-25T16:43:56.231Z,100278.00
2018-08-25T16:46:25.451Z,100280.00
2018-08-25T16:48:54.399Z,100291.00
2018-08-25T16:51:23.211Z,100280.00
2018-08-25T16:53:52.063Z,100299.00
2018-08-25T16:56:20.866Z,100288.00
2018-08-25T16:58:49.708Z,100306.00
2018-08-25T17:01:18.564Z,100295.00
2018-08-25T17:03:47.404Z,100299.00
2018-08-25T17:06:16.226Z,100304.00
2018-08-25T17:08:46.071Z,100305.00
2018-08-25T17:11:14.949Z,100301.00
2018-08-25T17:13:43.846Z,100304.00
2018-08-25T17:16:12.782Z,100300.00
2018-08-25T17:18:41.649Z,100303.00
2018-08-25T17:21:10.479Z,100304.00
2018-08-25T17:23:39.283Z,100308.00
2018-08-25T17:26:08.115Z,100314.00
2018-08-25T17:28:37.009Z,100306.00
2018-08-25T17:31:06.028Z,100317.00
2018-08-25T17:33:34.875Z,100317.00
2018-08-25T17:36:03.719Z,100332.00
2018-08-25T17:38:32.826Z,100321.00
2018-08-25T17:41:01.664Z,100317.00
2018-08-25T17:43:30.532Z,100320.00
2018-08-25T17:45:59.551Z,100324.00
2018-08-25T17:48:28.431Z,100342.00
2018-08-25T17:50:57.516Z,100330.00
2018-08-25T17:53:26.527Z,100340.00
2018-08-25T17:55:55.445Z,100342.00
2018-08-25T17:58:24.306Z,100347.00
2018-08-25T18:00:53.188Z,100349.00
2018-08-25T18:03:22.052Z,100348.00
2018-08-25T18:05:50.914Z,100360.00
2018-08-25T18:08:19.744Z,100361.00
2018-08-25T18:10:48.601Z,100359.00
2018-08-25T18:13:17.485Z,100370.00
2018-08-25T18:15:46.320Z,100373.00
2018-08-25T18:18:15.169Z,100372.00
2018-08-25T18:20:44.000Z,100368.00
2018-08-25T18:23:12.857Z,100377.00
2018-08-25T18:25:41.683Z,100382.00
2018-08-25T18:28:10.543Z,100391.00
2018-08-25T18:30:39.353Z,100391.00
2018-08-25T18:33:08.417Z,100395.00
2018-08-25T18:35:37.271Z,100399.00
2018-08-25T18:38:06.166Z,100408.00
2018-08-25T18:40:34.991Z,100398.00
2018-08-25T18:43:03.857Z,100415.00
2018-08-25T18:45:32.679Z,100413.00
2018-08-25T18:48:01.516Z,100415.00
2018-08-25T18:50:30.489Z,100425.00
2018-08-25T18:52:59.310Z,100424.00
2018-08-25T18:55:28.193Z,100419.00
2018-08-25T18:57:57.125Z,100430.00
2018-08-25T19:00:25.947Z,100430.00
2018-08-25T19:02:54.775Z,100434.00
2018-08-25T19:05:23.836Z,100436.00
2018-08-25T19:07:52.664Z,100442.00
2018-08-25T19:10:21.467Z,100444.00
2018-08-25T19:12:50.348Z,100448.00
2018-08-25T19:15:19.201Z,100451.00
2018-08-25T19:17:48.104Z,100451.00
2018-08-25T19:20:16.943Z,100456.00
2018-08-25T19:22:45.747Z,100449.00
2018-08-25T19:25:14.579Z,100452.00
2018-08-25T19:27:43.395Z,100449.00
2018-08-25T19:30:12.232Z,100459.00
2018-08-25T19:32:41.133Z,100467.00
2018-08-25T19:35:09.997Z,100473.00
2018-08-25T19:37:38.852Z,100468.00
2018-08-25T19:40:07.756Z,100462.00
2018-08-25T19:42:36.761Z,100476.00
2018-08-25T19:45:06.016Z,100481.00
2018-08-25T19:47:34.864Z,100481.00
2018-08-25T19:50:03.687Z,100485.00
2018-08-25T19:52:32.513Z,100486.00
2018-08-25T19:55:01.404Z,100483.00
2018-08-25T19:57:30.369Z,100488.00
2018-08-25T19:59:59.240Z,100488.00
2018-08-25T20:02:28.143Z,100481.00
2018-08-25T20:04:57.015Z,100487.00
2018-08-25T20:07:25.839Z,100488.00
2018-08-25T20:09:54.810Z,100491.00
2018-08-25T20:12:23.644Z,100489.00
2018-08-25T20:14:52.476Z,100496.00
2018-08-25T20:17:21.324Z,100502.00
2018-08-25T20:19:50.176Z,100500.00
2018-08-25T20:22:19.020Z,100510.00
2018-08-25T20:24:47.884Z,100512.00
2018-08-25T20:27:16.699Z,100519.00
2018-08-25T20:29:45.571Z,100524.00
2018-08-25T20:32:14.396Z,100513.00
2018-08-25T20:34:43.243Z,100519.00
2018-08-25T20:37:12.119Z,100526.00
2018-08-25T20:39:41.014Z,100530.00
2018-08-25T20:42:09.852Z,100533.00
2018-08-25T20:44:38.650Z,100531.00
2018-08-25T20:47:07.462Z,100528.00
2018-08-25T20:49:36.291Z,100535.00
2018-08-25T20:52:05.108Z,100541.00
2018-08-25T20:54:33.935Z,100552.00
2018-08-25T20:57:02.760Z,100542.00
2018-08-25T20:59:31.668Z,100559.00
2018-08-25T21:02:00.581Z,100560.00
2018-08-25T21:04:29.424Z,100556.00
2018-08-25T21:06:58.328Z,100562.00
2018-08-25T21:09:27.160Z,100566.00
2018-08-25T21:11:56.002Z,100573.00
2018-08-25T21:14:24.831Z,100572.00
2018-08-25T21:16:53.663Z,100570.00
2018-08-25T21:19:22.533Z,100581.00
2018-08-25T21:21:51.331Z,100580.00
2018-08-25T21:24:20.229Z,100586.00
2018-08-25T21:26:49.068Z,100583.00
2018-08-25T21:29:17.918Z,100578.00
2018-08-25T21:31:46.764Z,100587.00
2018-08-25T21:34:15.652Z,100595.00
2018-08-25T21:36:44.525Z,100591.00
2018-08-25T21:39:13.495Z,100590.00
2018-08-25T21:41:42.600Z,100586.00
2018-08-25T21:44:11.613Z,100583.00
2018-08-25T21:46:40.509Z,100595.00
2018-08-25T21:49:09.342Z,100593.00
2018-08-25T21:51:38.210Z,100594.00
2018-08-25T21:54:07.138Z,100598.00
2018-08-25T21:56:35.950Z,100589.00
2018-08-25T21:59:04.803Z,100592.00
2018-08-25T22:01:39.079Z,100599.00
2018-08-25T22:04:07.918Z,100594.00
2018-08-25T22:06:36.779Z,100593.00
2018-08-25T22:09:10.073Z,100595.00
2018-08-25T22:11:38.960Z,100599.00
2018-08-25T22:14:07.800Z,100605.00
2018-08-25T22:16:36.655Z,100600.00
2018-08-25T22:19:05.708Z,100604.00
2018-08-25T22:21:34.585Z,100595.00
2018-08-25T22:24:03.488Z,100604.00
2018-08-25T22:26:32.424Z,100617.00
2018-08-25T22:29:01.330Z,100626.00
2018-08-25T22:31:30.139Z,100619.00
2018-08-25T22:33:58.934Z,100626.00
2018-08-25T22:36:27.762Z,100624.00
2018-08-25T22:38:56.641Z,100630.00
2018-08-25T22:41:25.567Z,100635.00
2018-08-25T22:43:54.349Z,100630.00
2018-08-25T22:46:23.204Z,100627.00
2018-08-25T22:48:52.067Z,100640.00
2018-08-25T22:51:21.168Z,100648.00
2018-08-25T22:53:49.979Z,100643.00
2018-08-25T22:56:18.792Z,100660.00
2018-08-25T22:58:47.667Z,100653.00
2018-08-25T23:01:16.574Z,100655.00
2018-08-25T23:03:45.349Z,100667.00
2018-08-25T23:06:14.248Z,100659.00
2018-08-25T23:08:43.080Z,100664.00
2018-08-25T23:11:11.962Z,100666.00
2018-08-25T23:13:40.804Z,100667.00
2018-08-25T23:16:09.708Z,100670.00
2018-08-25T23:18:38.596Z,100667.00
2018-08-25T23:21:07.429Z,100665.00
2018-08-25T23:23:36.271Z,100669.00
2018-08-25T23:26:05.279Z,100664.00
2018-08-25T23:28:34.209Z,100676.00
2018-08-25T23:31:03.086Z,100681.00
2018-08-25T23:33:31.960Z,100678.00
2018-08-25T23:36:00.806Z,100678.00
2018-08-25T23:38:29.630Z,100680.00
2018-08-25T23:41:09.240Z,100677.00
2018-08-25T23:43:38.050Z,100676.00
2018-08-25T23:46:06.953Z,100680.00
2018-08-25T23:48:35.931Z,100668.00
2018-08-25T23:51:04.829Z,100673.00
2018-08-25T23:53:33.643Z,100678.00
2018-08-25T23:56:02.600Z,100668.00
2018-08-25T23:58:31.450Z,100667.00
